weather.gov     
National Weather Service

Terminal Aerodrome Forecast
NWS Homepage
This page is being discontinued on March 12, 2014.
The same data is available at this site. Please update your bookmarks.
Thank you, and we apologize for the inconvenience.
Please send an email to SR-SRH.Webmaster@noaa.gov with any concerns.


Current Version
Previous Version:    01  02  03  04  05  06  07  08  09  10  11  12  13  14  15  16  17  18  19  20  21  22  23  24  25  26  27  28  29  30  
   31  32  33  34  35  36  37  38  39  40  41  42  43  44  45  46  47  48  49  50  51  
[Printable]
377
FTUS41 KGYX 012320
TAFLEB
TAF
KLEB 012320Z 0200/0224 VRB03KT P6SM VCSH OVC025
     FM020300 00000KT 3SM -SHRA BR SCT007 OVC012
     FM020600 00000KT 1SM -SHRA BR OVC007
     FM020900 00000KT 1/4SM -DZ FG OVC001
     FM021200 00000KT 4SM BR OVC007
     FM021500 03003KT P6SM BKN120=




377
FTUS41 KGYX 012320
TAFLEB
TAF
KLEB 012320Z 0200/0224 VRB03KT P6SM VCSH OVC025
     FM020300 00000KT 3SM -SHRA BR SCT007 OVC012
     FM020600 00000KT 1SM -SHRA BR OVC007
     FM020900 00000KT 1/4SM -DZ FG OVC001
     FM021200 00000KT 4SM BR OVC007
     FM021500 03003KT P6SM BKN120=


U.S. Dept. of Commerce
NOAA National Weather Service
1325 East West Highway
Silver Spring, MD 20910
E-mail: w-nws.webmaster@noaa.gov
Page last modified: May 16, 2007
NATIONAL WEATHER SERVICE: for Safety, for Work, for Fun - FOR LIFE